createdAt,value
2019-06-01T00:01:44.729Z,11.90
2019-06-01T00:04:11.963Z,12.00
2019-06-01T00:06:38.845Z,11.80
2019-06-01T00:09:06.535Z,11.90
2019-06-01T00:11:33.292Z,11.90
2019-06-01T00:14:01.911Z,11.90
2019-06-01T00:16:28.681Z,12.00
2019-06-01T00:18:55.432Z,12.00
2019-06-01T00:21:22.270Z,12.10
2019-06-01T00:23:50.072Z,12.20
2019-06-01T00:26:17.969Z,12.40
2019-06-01T00:28:45.794Z,12.60
2019-06-01T00:31:12.781Z,12.60
2019-06-01T00:33:39.543Z,12.80
2019-06-01T00:36:06.326Z,12.90
2019-06-01T00:38:33.229Z,12.90
2019-06-01T00:41:00.213Z,13.00
2019-06-01T00:43:27.072Z,12.80
2019-06-01T00:45:53.974Z,12.70
2019-06-01T00:48:21.724Z,12.60
2019-06-01T00:50:49.142Z,12.50
2019-06-01T00:53:15.951Z,12.50
2019-06-01T00:55:43.250Z,12.40
2019-06-01T00:58:10.065Z,12.40
2019-06-01T01:00:43.619Z,12.40
2019-06-01T01:03:06.598Z,12.20
2019-06-01T01:05:33.454Z,12.30
2019-06-01T01:08:00.219Z,12.10
2019-06-01T01:10:26.995Z,12.00
2019-06-01T01:13:07.793Z,12.10
2019-06-01T01:15:34.868Z,12.40
2019-06-01T01:18:02.226Z,12.50
2019-06-01T01:20:29.120Z,12.20
2019-06-01T01:22:56.446Z,12.20
2019-06-01T01:25:24.239Z,12.30
2019-06-01T01:27:50.892Z,12.40
2019-06-01T01:30:18.605Z,12.40
2019-06-01T01:32:45.369Z,12.20
2019-06-01T01:35:12.253Z,12.10
2019-06-01T01:37:39.035Z,12.00
2019-06-01T01:40:05.921Z,12.10
2019-06-01T01:42:32.635Z,12.20
2019-06-01T01:44:59.489Z,12.20
2019-06-01T01:47:26.381Z,12.50
2019-06-01T01:49:54.064Z,12.70
2019-06-01T01:52:20.992Z,13.10
2019-06-01T01:54:47.782Z,13.40
2019-06-01T01:57:14.724Z,13.90
2019-06-01T01:59:41.477Z,14.20
2019-06-01T02:02:08.749Z,14.40
2019-06-01T02:04:35.541Z,14.70
2019-06-01T02:07:02.450Z,14.80
2019-06-01T02:09:29.344Z,14.90
2019-06-01T02:11:57.580Z,15.00
2019-06-01T02:14:24.619Z,15.10
2019-06-01T02:16:51.895Z,15.20
2019-06-01T02:19:18.746Z,15.20
2019-06-01T02:21:45.779Z,15.20
2019-06-01T02:24:12.565Z,15.20
2019-06-01T02:26:39.577Z,15.10
2019-06-01T02:29:06.242Z,15.00
2019-06-01T02:31:41.765Z,15.00
2019-06-01T02:34:05.469Z,14.90
2019-06-01T02:36:30.367Z,14.90
2019-06-01T02:38:58.601Z,14.90
2019-06-01T02:41:25.646Z,14.70
2019-06-01T02:43:52.432Z,14.60
2019-06-01T02:46:19.330Z,14.50
2019-06-01T02:48:46.159Z,14.30
2019-06-01T02:51:12.933Z,13.60
2019-06-01T02:53:39.843Z,13.50
2019-06-01T02:56:07.729Z,13.70
2019-06-01T02:58:34.546Z,13.80
2019-06-01T03:01:14.363Z,13.70
2019-06-01T03:03:41.334Z,13.10
2019-06-01T03:06:11.071Z,12.90
2019-06-01T03:08:38.421Z,12.60
2019-06-01T03:11:06.274Z,12.50
2019-06-01T03:13:38.113Z,12.50
2019-06-01T03:16:07.200Z,12.50
2019-06-01T03:18:35.812Z,12.40
2019-06-01T03:21:04.689Z,12.50
2019-06-01T03:23:33.959Z,12.50
2019-06-01T03:26:04.185Z,12.50
2019-06-01T03:28:37.192Z,12.60
2019-06-01T03:31:05.781Z,12.70
2019-06-01T03:33:32.658Z,12.70
2019-06-01T03:36:00.660Z,12.80
2019-06-01T03:38:29.632Z,12.80
2019-06-01T03:40:56.460Z,12.90
2019-06-01T03:43:23.709Z,12.80
2019-06-01T03:45:50.747Z,12.80
2019-06-01T03:48:17.450Z,12.70
2019-06-01T03:50:44.215Z,12.80
2019-06-01T03:53:12.072Z,12.70
2019-06-01T03:55:39.074Z,12.80
2019-06-01T03:58:07.290Z,12.80
2019-06-01T04:00:34.178Z,12.80
2019-06-01T04:03:01.087Z,12.80
2019-06-01T04:05:27.858Z,12.90
2019-06-01T04:07:54.616Z,13.00
2019-06-01T04:10:21.391Z,13.00
2019-06-01T04:12:48.144Z,13.20
2019-06-01T04:15:16.794Z,13.20
2019-06-01T04:17:43.593Z,13.10
2019-06-01T04:20:10.691Z,13.10
2019-06-01T04:22:37.454Z,13.20
2019-06-01T04:25:05.990Z,13.40
2019-06-01T04:27:32.962Z,13.50
2019-06-01T04:30:00.022Z,13.70
2019-06-01T04:32:26.905Z,13.80
2019-06-01T04:34:53.600Z,14.00
2019-06-01T04:37:20.368Z,14.20
2019-06-01T04:39:47.271Z,14.40
2019-06-01T04:42:14.322Z,14.60
2019-06-01T04:44:41.429Z,14.70
2019-06-01T04:47:09.239Z,14.40
2019-06-01T04:49:36.886Z,14.30
2019-06-01T04:52:04.645Z,14.40
2019-06-01T04:54:31.637Z,14.50
2019-06-01T04:56:58.688Z,14.60
2019-06-01T04:59:25.519Z,14.80
2019-06-01T05:01:52.477Z,14.80
2019-06-01T05:04:19.418Z,14.90
2019-06-01T05:06:48.122Z,15.10
2019-06-01T05:09:15.682Z,15.10
2019-06-01T05:11:42.820Z,15.00
2019-06-01T05:14:09.786Z,15.00
2019-06-01T05:16:36.575Z,15.00
2019-06-01T05:19:03.374Z,15.10
2019-06-01T05:21:30.275Z,15.00
2019-06-01T05:23:57.168Z,15.10
2019-06-01T05:26:23.931Z,15.10
2019-06-01T05:28:50.753Z,15.20
2019-06-01T05:31:24.701Z,15.20
2019-06-01T05:33:47.171Z,15.20
2019-06-01T05:36:14.354Z,15.30
2019-06-01T05:38:41.243Z,15.30
2019-06-01T05:41:09.971Z,15.20
2019-06-01T05:43:36.619Z,15.20
2019-06-01T05:46:03.650Z,15.30
2019-06-01T05:48:30.840Z,15.30
2019-06-01T05:50:57.817Z,15.40
2019-06-01T05:53:24.748Z,15.50
2019-06-01T05:55:51.623Z,15.60
2019-06-01T05:58:19.679Z,15.70
2019-06-01T06:00:46.543Z,15.80
2019-06-01T06:03:16.037Z,15.90
2019-06-01T06:05:42.086Z,16.00
2019-06-01T06:08:08.898Z,16.20
2019-06-01T06:10:36.158Z,16.20
2019-06-01T06:13:03.037Z,16.30
2019-06-01T06:15:29.817Z,16.30
2019-06-01T06:17:56.694Z,16.50
2019-06-01T06:20:23.367Z,16.80
2019-06-01T06:22:50.315Z,17.20
2019-06-01T06:25:17.120Z,17.50
2019-06-01T06:27:43.886Z,17.70
2019-06-01T06:30:10.720Z,17.90
2019-06-01T06:32:37.609Z,18.30
2019-06-01T06:35:04.706Z,18.30
2019-06-01T06:37:31.716Z,18.40
2019-06-01T06:39:58.743Z,18.40
2019-06-01T06:42:25.395Z,18.40
2019-06-01T06:44:52.326Z,18.50
2019-06-01T06:47:19.046Z,18.40
2019-06-01T06:49:45.909Z,18.50
2019-06-01T06:52:12.732Z,18.60
2019-06-01T06:54:39.502Z,18.70
2019-06-01T06:57:06.487Z,18.70
2019-06-01T06:59:33.241Z,18.80
2019-06-01T07:02:00.048Z,18.90
2019-06-01T07:04:27.485Z,18.90
2019-06-01T07:06:54.488Z,19.00
2019-06-01T07:09:21.910Z,19.10
2019-06-01T07:11:49.539Z,19.30
2019-06-01T07:14:16.402Z,19.50
2019-06-01T07:16:43.435Z,19.70
2019-06-01T07:19:10.238Z,19.70
2019-06-01T07:21:37.108Z,19.90
2019-06-01T07:24:03.816Z,20.10
2019-06-01T07:26:30.729Z,20.30
2019-06-01T07:28:57.643Z,20.50
2019-06-01T07:31:24.362Z,20.70
2019-06-01T07:33:51.227Z,20.70
2019-06-01T07:36:18.098Z,20.80
2019-06-01T07:38:45.900Z,20.80
2019-06-01T07:41:12.747Z,20.70
2019-06-01T07:43:39.561Z,20.50
2019-06-01T07:46:06.536Z,20.70
2019-06-01T07:48:33.539Z,20.80
2019-06-01T07:51:00.413Z,20.80
2019-06-01T07:53:29.541Z,20.80
2019-06-01T07:55:55.995Z,21.00
2019-06-01T07:58:22.878Z,20.90
2019-06-01T08:00:49.654Z,20.90
2019-06-01T08:03:16.517Z,21.00
2019-06-01T08:05:43.268Z,21.30
2019-06-01T08:08:10.086Z,21.50
2019-06-01T08:10:36.915Z,21.60
2019-06-01T08:13:03.683Z,21.60
2019-06-01T08:15:31.767Z,21.60
2019-06-01T08:17:58.765Z,21.70
2019-06-01T08:20:25.999Z,21.90
2019-06-01T08:22:52.969Z,22.10
2019-06-01T08:25:19.808Z,22.10
2019-06-01T08:27:46.692Z,21.90
2019-06-01T08:30:13.598Z,22.10
2019-06-01T08:32:40.660Z,22.30
2019-06-01T08:35:09.456Z,22.40
2019-06-01T08:37:36.500Z,22.70
2019-06-01T08:40:05.362Z,22.70
2019-06-01T08:42:33.630Z,22.80
2019-06-01T08:45:00.755Z,23.00
2019-06-01T08:47:27.873Z,23.00
2019-06-01T08:49:54.691Z,23.00
2019-06-01T08:52:21.523Z,23.10
2019-06-01T08:54:49.340Z,23.20
2019-06-01T08:57:16.213Z,23.40
2019-06-01T08:59:43.088Z,23.50
2019-06-01T09:02:09.929Z,23.60
2019-06-01T09:04:36.688Z,23.70
2019-06-01T09:07:03.619Z,23.70
2019-06-01T09:09:31.016Z,23.70
2019-06-01T09:11:57.885Z,23.80
2019-06-01T09:14:25.209Z,23.90
2019-06-01T09:16:52.102Z,24.00
2019-06-01T09:19:18.837Z,24.00
2019-06-01T09:21:45.698Z,24.10
2019-06-01T09:24:12.454Z,24.30
2019-06-01T09:26:39.220Z,24.50
2019-06-01T09:29:06.107Z,24.80
2019-06-01T09:31:34.268Z,25.10
2019-06-01T09:34:02.328Z,25.40
2019-06-01T09:36:30.316Z,25.70
2019-06-01T09:38:57.169Z,25.90
2019-06-01T09:41:24.061Z,25.80
2019-06-01T09:43:50.871Z,25.60
2019-06-01T09:46:17.784Z,25.10
2019-06-01T09:48:44.737Z,24.90
2019-06-01T09:51:11.457Z,24.50
2019-06-01T09:53:38.255Z,24.40
2019-06-01T09:56:05.030Z,24.40
2019-06-01T09:58:32.279Z,24.10
2019-06-01T10:00:59.183Z,24.00
2019-06-01T10:03:26.009Z,23.80
2019-06-01T10:06:02.004Z,23.90
2019-06-01T10:08:21.487Z,23.80
2019-06-01T10:10:48.579Z,23.70
2019-06-01T10:13:15.263Z,23.70
2019-06-01T10:15:43.186Z,23.70
2019-06-01T10:18:10.089Z,23.80
2019-06-01T10:20:37.196Z,24.00
2019-06-01T10:23:03.956Z,24.10
2019-06-01T10:25:32.280Z,24.00
2019-06-01T10:27:59.324Z,24.10
2019-06-01T10:30:26.103Z,24.40
2019-06-01T10:32:52.790Z,24.50
2019-06-01T10:35:19.748Z,24.30
2019-06-01T10:37:46.563Z,24.20
2019-06-01T10:40:13.651Z,24.20
2019-06-01T10:42:41.780Z,24.20
2019-06-01T10:45:09.245Z,24.40
2019-06-01T10:47:36.075Z,24.30
2019-06-01T10:50:05.186Z,24.30
2019-06-01T10:52:32.014Z,24.60
2019-06-01T10:54:58.786Z,24.90
2019-06-01T10:57:25.578Z,25.00
2019-06-01T10:59:52.408Z,24.70
2019-06-01T11:02:19.314Z,24.60
2019-06-01T11:04:46.109Z,24.50
2019-06-01T11:07:12.882Z,24.50
2019-06-01T11:09:41.093Z,24.60
2019-06-01T11:12:08.005Z,24.60
2019-06-01T11:14:34.971Z,24.60
2019-06-01T11:17:01.855Z,24.70
2019-06-01T11:19:28.660Z,24.40
2019-06-01T11:21:55.459Z,25.10
2019-06-01T11:24:22.281Z,25.40
2019-06-01T11:26:49.271Z,25.40
2019-06-01T11:29:17.852Z,25.30
2019-06-01T11:31:44.598Z,25.20
2019-06-01T11:34:11.378Z,25.40
2019-06-01T11:36:58.703Z,25.30
2019-06-01T11:39:07.212Z,25.10
2019-06-01T11:41:34.454Z,24.60
2019-06-01T11:44:01.492Z,24.60
2019-06-01T11:46:28.429Z,24.90
2019-06-01T11:48:55.325Z,25.10
2019-06-01T11:51:22.171Z,25.10
2019-06-01T11:53:48.829Z,25.10
2019-06-01T11:56:15.705Z,25.10
2019-06-01T11:58:43.406Z,25.10
2019-06-01T12:01:10.343Z,24.90
2019-06-01T12:03:37.644Z,24.90
2019-06-01T12:06:04.741Z,24.90
2019-06-01T12:08:34.098Z,25.10
2019-06-01T12:11:00.110Z,25.30
2019-06-01T12:13:26.910Z,25.60
2019-06-01T12:15:53.892Z,25.50
2019-06-01T12:18:20.516Z,25.40
2019-06-01T12:20:47.389Z,25.80
2019-06-01T12:23:14.198Z,26.20
2019-06-01T12:25:42.172Z,26.10
2019-06-01T12:28:09.180Z,26.10
2019-06-01T12:30:37.408Z,26.60
2019-06-01T12:33:05.181Z,27.10
2019-06-01T12:35:32.109Z,26.70
2019-06-01T12:38:06.211Z,26.60
2019-06-01T12:40:27.636Z,27.10
2019-06-01T12:42:54.467Z,26.90
2019-06-01T12:45:26.282Z,26.70
2019-06-01T12:47:58.152Z,26.70
2019-06-01T12:50:22.399Z,26.30
2019-06-01T12:52:52.640Z,25.90
2019-06-01T12:55:23.069Z,26.00
2019-06-01T12:57:51.352Z,25.80
2019-06-01T13:00:23.252Z,25.70
2019-06-01T13:03:06.008Z,25.80
2019-06-01T13:05:22.524Z,26.10
2019-06-01T13:08:00.458Z,26.60
2019-06-01T13:10:20.612Z,26.90
2019-06-01T13:12:47.700Z,27.20
2019-06-01T13:15:17.006Z,27.40
2019-06-01T13:17:46.977Z,27.40
2019-06-01T13:20:15.154Z,27.10
2019-06-01T13:22:46.101Z,26.90
2019-06-01T13:25:15.675Z,26.70
2019-06-01T13:27:48.705Z,26.60
2019-06-01T13:30:17.430Z,26.50
2019-06-01T13:32:48.591Z,26.50
2019-06-01T13:35:17.974Z,26.40
2019-06-01T13:37:47.213Z,26.50
2019-06-01T13:40:14.641Z,26.50
2019-06-01T13:42:49.213Z,26.70
2019-06-01T13:45:17.019Z,26.20
2019-06-01T13:47:49.853Z,26.00
2019-06-01T13:50:19.759Z,25.90
2019-06-01T13:52:52.151Z,25.60
2019-06-01T13:55:21.312Z,25.80
2019-06-01T13:57:53.084Z,26.00
2019-06-01T14:00:30.334Z,26.10
2019-06-01T14:02:58.507Z,26.10
2019-06-01T14:05:26.200Z,26.20
2019-06-01T14:07:57.218Z,26.10
2019-06-01T14:10:27.667Z,26.00
2019-06-01T14:12:56.851Z,26.10
2019-06-01T14:15:28.583Z,25.90
2019-06-01T14:17:57.412Z,26.10
2019-06-01T14:20:31.302Z,26.10
2019-06-01T14:23:01.236Z,26.30
2019-06-01T14:25:31.027Z,26.30
2019-06-01T14:28:01.655Z,26.10
2019-06-01T14:30:30.240Z,26.00
2019-06-01T14:33:03.330Z,25.80
2019-06-01T14:35:30.880Z,25.80
2019-06-01T14:38:04.685Z,26.00
2019-06-01T14:40:29.592Z,25.90
2019-06-01T14:42:58.605Z,26.00
2019-06-01T14:45:31.902Z,26.00
2019-06-01T14:48:01.371Z,26.00
2019-06-01T14:50:32.089Z,26.30
2019-06-01T14:53:03.083Z,26.40
2019-06-01T14:55:32.033Z,26.20
2019-06-01T14:58:01.866Z,26.10
2019-06-01T15:00:32.341Z,26.30
2019-06-01T15:03:05.805Z,26.20
2019-06-01T15:05:34.963Z,25.90
2019-06-01T15:08:08.858Z,25.80
2019-06-01T15:10:43.747Z,25.60
2019-06-01T15:13:11.962Z,25.40
2019-06-01T15:15:41.850Z,25.20
2019-06-01T15:18:13.613Z,25.20
2019-06-01T15:20:42.427Z,25.10
2019-06-01T15:23:11.056Z,25.10
2019-06-01T15:25:37.872Z,25.20
2019-06-01T15:28:04.650Z,25.30
2019-06-01T15:30:31.430Z,25.20
2019-06-01T15:32:59.312Z,25.20
2019-06-01T15:35:26.100Z,25.20
2019-06-01T15:37:57.153Z,25.10
2019-06-01T15:40:21.554Z,25.00
2019-06-01T15:42:48.621Z,25.00
2019-06-01T15:45:17.199Z,24.80
2019-06-01T15:47:44.077Z,24.70
2019-06-01T15:50:11.365Z,24.70
2019-06-01T15:52:38.364Z,24.60
2019-06-01T15:55:07.136Z,24.50
2019-06-01T15:57:34.158Z,24.40
2019-06-01T16:00:01.023Z,24.50
2019-06-01T16:02:27.834Z,24.50
2019-06-01T16:04:55.047Z,24.60
2019-06-01T16:07:21.953Z,24.70
2019-06-01T16:09:48.832Z,24.70
2019-06-01T16:12:15.704Z,24.80
2019-06-01T16:14:42.488Z,24.80
2019-06-01T16:17:09.442Z,24.90
2019-06-01T16:19:36.290Z,24.90
2019-06-01T16:22:03.193Z,24.90
2019-06-01T16:24:31.177Z,25.00
2019-06-01T16:26:58.264Z,25.00
2019-06-01T16:29:25.358Z,25.00
2019-06-01T16:31:52.249Z,24.90
2019-06-01T16:34:19.074Z,24.90
2019-06-01T16:36:45.845Z,24.80
2019-06-01T16:39:12.727Z,24.70
2019-06-01T16:41:39.472Z,24.60
2019-06-01T16:44:06.179Z,24.50
2019-06-01T16:46:33.015Z,24.50
2019-06-01T16:48:59.938Z,24.50
2019-06-01T16:51:47.292Z,24.60
2019-06-01T16:54:14.089Z,24.50
2019-06-01T16:56:40.907Z,24.50
2019-06-01T16:59:07.692Z,24.50
2019-06-01T17:01:34.550Z,24.40
2019-06-01T17:04:02.561Z,24.40
2019-06-01T17:06:29.839Z,24.10
2019-06-01T17:08:56.718Z,24.20
2019-06-01T17:11:23.541Z,24.20
2019-06-01T17:13:51.424Z,24.10
2019-06-01T17:16:18.245Z,24.00
2019-06-01T17:18:45.089Z,24.00
2019-06-01T17:21:12.025Z,24.00
2019-06-01T17:23:38.809Z,24.00
2019-06-01T17:26:07.014Z,23.90
2019-06-01T17:28:34.273Z,23.70
2019-06-01T17:31:02.166Z,23.70
2019-06-01T17:33:29.622Z,23.70
2019-06-01T17:35:56.761Z,23.50
2019-06-01T17:38:23.619Z,23.40
2019-06-01T17:40:52.385Z,23.30
2019-06-01T17:43:19.053Z,23.20
2019-06-01T17:45:45.809Z,22.90
2019-06-01T17:48:24.600Z,22.60
2019-06-01T17:50:41.312Z,22.60
2019-06-01T17:53:08.841Z,22.40
2019-06-01T17:55:38.156Z,22.30
2019-06-01T17:58:07.728Z,22.20
2019-06-01T18:00:35.313Z,22.20
2019-06-01T18:03:03.484Z,21.90
2019-06-01T18:05:30.614Z,21.80
2019-06-01T18:07:57.456Z,21.80
2019-06-01T18:10:25.305Z,21.70
2019-06-01T18:12:52.957Z,21.70
2019-06-01T18:15:20.018Z,21.60
2019-06-01T18:17:46.820Z,21.50
2019-06-01T18:20:13.820Z,21.40
2019-06-01T18:22:40.868Z,21.30
2019-06-01T18:25:08.567Z,21.20
2019-06-01T18:27:35.526Z,21.00
2019-06-01T18:30:10.654Z,21.10
2019-06-01T18:32:37.740Z,21.10
2019-06-01T18:35:06.980Z,21.00
2019-06-01T18:37:34.075Z,21.00
2019-06-01T18:40:00.885Z,20.90
2019-06-01T18:42:29.208Z,20.80
2019-06-01T18:44:56.128Z,20.80
2019-06-01T18:47:32.205Z,20.70
2019-06-01T18:49:52.166Z,20.50
2019-06-01T18:52:19.457Z,20.40
2019-06-01T18:54:46.328Z,20.40
2019-06-01T18:57:19.350Z,20.20
2019-06-01T18:59:42.045Z,20.20
2019-06-01T19:02:08.913Z,20.30
2019-06-01T19:04:35.808Z,20.30
2019-06-01T19:07:02.569Z,20.20
2019-06-01T19:09:29.383Z,20.20
2019-06-01T19:11:56.200Z,20.20
2019-06-01T19:14:22.966Z,20.10
2019-06-01T19:16:49.710Z,20.10
2019-06-01T19:19:16.772Z,20.00
2019-06-01T19:21:43.656Z,19.90
2019-06-01T19:24:10.557Z,19.90
2019-06-01T19:26:37.398Z,19.90
2019-06-01T19:29:04.165Z,19.80
2019-06-01T19:31:30.962Z,19.80
2019-06-01T19:33:58.193Z,19.70
2019-06-01T19:36:26.293Z,19.70
2019-06-01T19:38:54.040Z,19.60
2019-06-01T19:41:20.819Z,19.60
2019-06-01T19:43:47.745Z,19.60
2019-06-01T19:46:14.536Z,19.60
2019-06-01T19:48:41.298Z,19.60
2019-06-01T19:51:08.679Z,19.60
2019-06-01T19:53:35.409Z,19.50
2019-06-01T19:56:02.303Z,19.40
2019-06-01T19:58:29.104Z,19.40
2019-06-01T20:00:55.966Z,19.40
2019-06-01T20:03:23.894Z,19.60
2019-06-01T20:05:50.808Z,19.60
2019-06-01T20:08:18.160Z,19.60
2019-06-01T20:10:45.144Z,19.50
2019-06-01T20:13:13.015Z,19.60
2019-06-01T20:15:39.957Z,19.70
2019-06-01T20:18:06.916Z,19.70
2019-06-01T20:20:33.749Z,19.70
2019-06-01T20:23:01.015Z,19.80
2019-06-01T20:25:28.143Z,19.80
2019-06-01T20:27:55.055Z,19.90
2019-06-01T20:30:22.213Z,19.80
2019-06-01T20:32:49.079Z,19.90
2019-06-01T20:35:16.167Z,19.60
2019-06-01T20:37:43.072Z,19.50
2019-06-01T20:40:10.223Z,19.40
2019-06-01T20:42:37.011Z,19.20
2019-06-01T20:45:07.799Z,19.00
2019-06-01T20:47:35.074Z,19.00
2019-06-01T20:50:05.246Z,19.00
2019-06-01T20:52:32.163Z,19.00
2019-06-01T20:54:58.993Z,19.00
2019-06-01T20:57:25.852Z,19.00
2019-06-01T20:59:55.486Z,18.90
2019-06-01T21:02:22.321Z,18.70
2019-06-01T21:04:49.164Z,18.60
2019-06-01T21:07:16.051Z,18.60
2019-06-01T21:09:42.955Z,18.60
2019-06-01T21:12:11.584Z,18.60
2019-06-01T21:14:39.114Z,18.50
2019-06-01T21:17:05.954Z,18.50
2019-06-01T21:19:32.906Z,18.50
2019-06-01T21:21:59.662Z,18.50
2019-06-01T21:24:26.524Z,18.50
2019-06-01T21:26:53.327Z,18.50
2019-06-01T21:29:20.918Z,18.50
2019-06-01T21:31:47.830Z,18.40
2019-06-01T21:34:15.062Z,18.40
2019-06-01T21:36:42.484Z,18.40
2019-06-01T21:39:09.218Z,18.30
2019-06-01T21:41:36.013Z,18.30
2019-06-01T21:44:02.821Z,18.40
2019-06-01T21:46:29.817Z,18.30
2019-06-01T21:48:56.708Z,18.20
2019-06-01T21:51:24.020Z,18.20
2019-06-01T21:53:50.808Z,18.20
2019-06-01T21:56:20.235Z,18.20
2019-06-01T21:58:46.376Z,18.30
2019-06-01T22:01:13.656Z,18.30
2019-06-01T22:03:40.569Z,18.40
2019-06-01T22:06:07.372Z,18.30
2019-06-01T22:08:34.262Z,18.20
2019-06-01T22:11:00.939Z,18.20
2019-06-01T22:13:28.940Z,18.30
2019-06-01T22:15:55.892Z,18.30
2019-06-01T22:18:23.771Z,18.30
2019-06-01T22:20:50.713Z,18.30
2019-06-01T22:23:19.691Z,18.30
2019-06-01T22:25:46.003Z,18.30
2019-06-01T22:28:12.829Z,18.30
2019-06-01T22:30:39.672Z,18.00
2019-06-01T22:33:06.468Z,17.90
2019-06-01T22:35:33.280Z,17.90
2019-06-01T22:38:00.092Z,17.80
2019-06-01T22:40:27.292Z,17.60
2019-06-01T22:42:54.340Z,17.60
2019-06-01T22:45:22.030Z,17.60
2019-06-01T22:47:48.957Z,17.70
2019-06-01T22:50:15.851Z,17.70
2019-06-01T22:52:42.636Z,17.60
2019-06-01T22:55:09.881Z,17.60
2019-06-01T22:57:36.652Z,17.60
2019-06-01T23:00:04.922Z,17.40
2019-06-01T23:02:32.076Z,17.40
2019-06-01T23:04:58.895Z,17.40
2019-06-01T23:07:27.179Z,17.50
2019-06-01T23:09:54.100Z,17.50
2019-06-01T23:12:21.220Z,17.30
2019-06-01T23:14:48.090Z,17.30
2019-06-01T23:17:14.841Z,17.30
2019-06-01T23:19:41.569Z,17.40
2019-06-01T23:22:08.320Z,17.40
2019-06-01T23:24:35.089Z,17.30
2019-06-01T23:27:02.131Z,17.40
2019-06-01T23:29:30.137Z,17.40
2019-06-01T23:31:56.991Z,17.40
2019-06-01T23:34:26.651Z,17.30
2019-06-01T23:36:52.460Z,17.30
2019-06-01T23:39:19.256Z,17.20
2019-06-01T23:41:46.145Z,17.10
2019-06-01T23:44:12.964Z,17.10
2019-06-01T23:46:39.721Z,17.20
2019-06-01T23:49:06.619Z,17.20
2019-06-01T23:51:33.971Z,17.20
2019-06-01T23:54:00.885Z,17.20
2019-06-01T23:56:27.859Z,17.10
2019-06-01T23:58:55.735Z,17.20
